Time,TemperatureF,DewpointF,PressureIn,WindDirection,WindDirectionDegrees,WindSpeedMPH,WindSpeedGustMPH,Humidity,HourlyPrecipIn,Conditions,Clouds,dailyrainin,SoftwareType,DateUTC
2013-07-19 00:01:00,80.2,74.9,29.95,SSW,202,0.0,1.2,84,0.00,CLR,,0.00,WeatherDisplay:10.37,2013-07-19 04:01:00,
2013-07-19 00:02:00,80.1,74.8,29.95,SSE,158,0.0,0.0,84,0.00,CLR,,0.00,WeatherDisplay:10.37,2013-07-19 04:02:00,
2013-07-19 00:03:00,80.1,74.8,29.95,SW,225,0.0,0.0,84,0.00,CLR,,0.00,WeatherDisplay:10.37,2013-07-19 04:03:00,
2013-07-19 00:08:00,80.1,74.8,29.95,ESE,112,2.3,3.5,84,0.00,CLR,,0.00,WeatherDisplay:10.37,2013-07-19 04:08:00,
2013-07-19 00:13:00,80.1,74.8,29.95,South,180,0.0,0.0,84,0.00,CLR,,0.00,WeatherDisplay:10.37,2013-07-19 04:13:00,
2013-07-19 00:15:00,79.9,74.6,29.95,ESE,112,0.0,0.0,84,0.00,CLR,,0.00,WeatherDisplay:10.37,2013-07-19 04:15:00,
2013-07-19 00:21:00,79.7,74.8,29.95,South,180,2.2,3.7,85,0.00,CLR,,0.00,WeatherDisplay:10.37,2013-07-19 04:21:00,
2013-07-19 00:26:00,79.7,74.8,29.94,NW,315,1.3,2.7,85,0.00,CLR,,0.00,WeatherDisplay:10.37,2013-07-19 04:26:00,
2013-07-19 00:31:00,79.3,74.4,29.94,SSW,202,0.0,0.0,85,0.00,CLR,,0.00,WeatherDisplay:10.37,2013-07-19 04:31:00,
2013-07-19 00:36:00,79.3,74.4,29.94,ESE,112,1.0,1.2,85,0.00,CLR,,0.00,WeatherDisplay:10.37,2013-07-19 04:36:00,
2013-07-19 00:41:00,79.3,74.4,29.94,South,180,0.5,2.3,85,0.00,CLR,,0.00,WeatherDisplay:10.37,2013-07-19 04:41:00,
2013-07-19 00:46:00,79.2,74.3,29.94,South,180,0.0,0.0,85,0.00,CLR,,0.00,WeatherDisplay:10.37,2013-07-19 04:46:00,
2013-07-19 00:51:00,79.0,74.5,29.94,SE,135,0.5,1.2,86,0.00,CLR,,0.00,WeatherDisplay:10.37,2013-07-19 04:51:00,
2013-07-19 00:56:00,79.0,74.5,29.94,SSE,158,0.2,1.1,86,0.00,CLR,,0.00,WeatherDisplay:10.37,2013-07-19 04:56:00,
2013-07-19 01:01:00,78.8,74.3,29.94,NE,45,0.0,1.2,86,0.00,CLR,,0.00,WeatherDisplay:10.37,2013-07-19 05:01:00,
2013-07-19 01:06:00,78.8,74.3,29.94,South,180,0.0,0.0,86,0.00,CLR,,0.00,WeatherDisplay:10.37,2013-07-19 05:06:00,
2013-07-19 01:12:00,78.8,74.3,29.93,ESE,112,0.3,2.3,86,0.00,CLR,,0.00,WeatherDisplay:10.37,2013-07-19 05:12:00,
2013-07-19 01:17:00,78.4,74.2,29.93,SE,135,0.0,0.0,87,0.00,CLR,,0.00,WeatherDisplay:10.37,2013-07-19 05:17:00,
2013-07-19 01:22:00,78.3,74.1,29.93,South,180,0.0,0.0,87,0.00,CLR,,0.00,WeatherDisplay:10.37,2013-07-19 05:22:00,
2013-07-19 01:27:00,78.1,74.3,29.92,South,180,0.0,1.2,88,0.00,CLR,,0.00,WeatherDisplay:10.37,2013-07-19 05:27:00,
2013-07-19 01:32:00,77.7,73.9,29.92,South,180,0.0,0.0,88,0.00,CLR,,0.00,WeatherDisplay:10.37,2013-07-19 05:32:00,
2013-07-19 01:37:00,77.7,73.9,29.92,West,270,0.0,0.0,88,0.00,CLR,,0.00,WeatherDisplay:10.37,2013-07-19 05:37:00,
2013-07-19 01:42:00,77.4,73.9,29.92,SSW,202,0.3,2.3,89,0.00,CLR,,0.00,WeatherDisplay:10.37,2013-07-19 05:42:00,
2013-07-19 01:47:00,77.5,74.0,29.92,SSW,202,0.3,1.2,89,0.00,CLR,,0.00,WeatherDisplay:10.37,2013-07-19 05:47:00,
2013-07-19 01:52:00,77.5,74.0,29.92,SE,135,1.9,3.5,89,0.00,CLR,,0.00,WeatherDisplay:10.37,2013-07-19 05:52:00,
2013-07-19 01:57:00,77.5,74.0,29.92,SE,135,0.5,1.2,89,0.00,CLR,,0.00,WeatherDisplay:10.37,2013-07-19 05:57:00,
2013-07-19 02:03:00,77.4,73.9,29.92,SW,225,1.2,2.3,89,0.00,CLR,,0.00,WeatherDisplay:10.37,2013-07-19 06:03:00,
2013-07-19 02:08:00,77.4,73.9,29.92,South,180,0.9,2.7,89,0.00,CLR,,0.00,WeatherDisplay:10.37,2013-07-19 06:08:00,
2013-07-19 02:13:00,77.5,74.0,29.92,SW,225,0.0,0.0,89,0.00,CLR,,0.00,WeatherDisplay:10.37,2013-07-19 06:13:00,
2013-07-19 02:18:00,77.4,73.9,29.92,SSE,158,0.0,0.0,89,0.00,CLR,,0.00,WeatherDisplay:10.37,2013-07-19 06:18:00,
2013-07-19 02:23:00,77.5,74.0,29.92,SW,225,1.0,3.5,89,0.00,CLR,,0.00,WeatherDisplay:10.37,2013-07-19 06:23:00,
2013-07-19 02:28:00,77.4,73.9,29.91,SSW,202,0.0,0.0,89,0.00,CLR,,0.00,WeatherDisplay:10.37,2013-07-19 06:28:00,
2013-07-19 02:33:00,77.4,73.9,29.91,South,180,0.8,2.3,89,0.00,CLR,,0.00,WeatherDisplay:10.37,2013-07-19 06:33:00,
2013-07-19 02:38:00,77.4,73.9,29.91,SSW,202,0.3,1.2,89,0.00,CLR,,0.00,WeatherDisplay:10.37,2013-07-19 06:38:00,
2013-07-19 02:43:00,77.4,73.9,29.91,SSW,202,0.0,0.0,89,0.00,CLR,,0.00,WeatherDisplay:10.37,2013-07-19 06:43:00,
2013-07-19 02:48:00,77.2,73.7,29.90,ESE,112,0.8,2.3,89,0.00,CLR,,0.00,WeatherDisplay:10.37,2013-07-19 06:48:00,
2013-07-19 02:54:00,77.2,73.7,29.90,SE,135,1.6,2.2,89,0.00,CLR,,0.00,WeatherDisplay:10.37,2013-07-19 06:54:00,
2013-07-19 02:59:00,77.2,73.7,29.90,South,180,0.7,2.2,89,0.00,CLR,,0.00,WeatherDisplay:10.37,2013-07-19 06:59:00,
2013-07-19 03:04:00,77.0,73.5,29.90,ESE,112,0.3,2.3,89,0.00,CLR,,0.00,WeatherDisplay:10.37,2013-07-19 07:04:00,
2013-07-19 03:09:00,77.2,73.7,29.90,South,180,1.7,3.5,89,0.00,CLR,,0.00,WeatherDisplay:10.37,2013-07-19 07:09:00,
2013-07-19 03:14:00,77.2,73.7,29.89,ENE,68,0.0,0.0,89,0.00,CLR,,0.00,WeatherDisplay:10.37,2013-07-19 07:14:00,
2013-07-19 03:19:00,77.2,73.7,29.89,SSW,202,0.4,2.3,89,0.00,CLR,,0.00,WeatherDisplay:10.37,2013-07-19 07:19:00,
2013-07-19 03:24:00,77.2,73.7,29.89,SSE,158,0.0,0.0,89,0.00,CLR,,0.00,WeatherDisplay:10.37,2013-07-19 07:24:00,
2013-07-19 03:29:00,77.0,73.5,29.90,South,180,0.6,2.7,89,0.00,CLR,,0.00,WeatherDisplay:10.37,2013-07-19 07:29:00,
2013-07-19 03:34:00,77.2,73.7,29.90,ESE,112,0.0,0.0,89,0.00,CLR,,0.00,WeatherDisplay:10.37,2013-07-19 07:34:00,
2013-07-19 03:39:00,77.2,73.7,29.89,West,270,0.0,0.0,89,0.00,CLR,,0.00,WeatherDisplay:10.37,2013-07-19 07:39:00,
2013-07-19 03:45:00,77.4,73.9,29.89,NNE,22,0.7,1.2,89,0.00,CLR,,0.00,WeatherDisplay:10.37,2013-07-19 07:45:00,
2013-07-19 03:50:00,77.2,73.7,29.89,SW,225,1.3,2.3,89,0.00,CLR,,0.00,WeatherDisplay:10.37,2013-07-19 07:50:00,
2013-07-19 03:55:00,77.0,73.5,29.89,NW,315,0.2,1.7,89,0.00,CLR,,0.00,WeatherDisplay:10.37,2013-07-19 07:55:00,
2013-07-19 04:00:00,77.0,73.8,29.89,South,172,0.0,3.0,90,0.00,CLR,,0.00,WeatherDisplay:10.37,2013-07-19 08:00:00,
2013-07-19 04:05:00,77.0,73.8,29.89,ESE,120,0.0,0.0,90,0.00,CLR,,0.00,WeatherDisplay:10.37,2013-07-19 08:05:00,
2013-07-19 04:10:00,76.8,73.6,29.89,SSE,166,0.0,4.0,90,0.00,CLR,,0.00,WeatherDisplay:10.37,2013-07-19 08:10:00,
2013-07-19 04:15:00,76.6,73.4,29.88,South,191,0.0,0.0,90,0.00,CLR,,0.00,WeatherDisplay:10.37,2013-07-19 08:15:00,
2013-07-19 04:20:00,76.6,73.4,29.88,SSW,192,2.0,3.0,90,0.00,CLR,,0.00,WeatherDisplay:10.37,2013-07-19 08:20:00,
2013-07-19 04:25:00,76.5,73.3,29.87,SSW,202,0.0,2.0,90,0.00,CLR,,0.00,WeatherDisplay:10.37,2013-07-19 08:25:00,
2013-07-19 04:30:00,76.3,73.5,29.87,SSE,163,1.0,3.0,91,0.00,CLR,,0.00,WeatherDisplay:10.37,2013-07-19 08:30:00,
2013-07-19 04:35:00,76.3,73.5,29.87,SSE,148,1.0,2.0,91,0.00,CLR,,0.00,WeatherDisplay:10.37,2013-07-19 08:35:00,
2013-07-19 04:40:00,76.3,73.4,29.87,South,189,1.0,3.0,91,0.00,CLR,,0.00,WeatherDisplay:10.37,2013-07-19 08:40:00,
2013-07-19 04:45:00,76.1,73.3,29.87,SE,144,0.0,1.0,91,0.00,CLR,,0.00,WeatherDisplay:10.37,2013-07-19 08:45:00,
2013-07-19 04:50:00,76.1,73.3,29.87,SE,135,0.0,3.0,91,0.00,CLR,,0.00,WeatherDisplay:10.37,2013-07-19 08:50:00,
2013-07-19 04:55:00,75.9,73.1,29.87,SSW,202,0.0,0.0,91,0.00,CLR,,0.00,WeatherDisplay:10.37,2013-07-19 08:55:00,
2013-07-19 05:00:00,75.9,73.4,29.86,South,180,0.0,0.0,92,0.00,CLR,,0.00,WeatherDisplay:10.37,2013-07-19 09:00:00,
2013-07-19 05:05:00,75.7,73.2,29.86,SW,225,0.2,1.1,92,0.00,CLR,,0.00,WeatherDisplay:10.37,2013-07-19 09:05:00,
2013-07-19 05:10:00,75.7,73.2,29.86,SW,225,0.0,0.0,92,0.00,CLR,,0.00,WeatherDisplay:10.37,2013-07-19 09:10:00,
2013-07-19 05:15:00,75.7,73.2,29.86,SE,135,0.0,0.0,92,0.00,CLR,,0.00,WeatherDisplay:10.37,2013-07-19 09:15:00,
2013-07-19 05:21:00,75.7,73.2,29.86,West,270,0.4,1.7,92,0.00,CLR,,0.00,WeatherDisplay:10.37,2013-07-19 09:21:00,
2013-07-19 05:26:00,75.9,73.4,29.86,East,90,0.0,1.2,92,0.00,CLR,,0.00,WeatherDisplay:10.37,2013-07-19 09:26:00,
2013-07-19 05:31:00,75.7,73.2,29.86,South,180,0.0,0.0,92,0.00,CLR,,0.00,WeatherDisplay:10.37,2013-07-19 09:31:00,
2013-07-19 05:36:00,75.9,73.4,29.86,SSW,202,0.9,2.3,92,0.00,CLR,,0.00,WeatherDisplay:10.37,2013-07-19 09:36:00,
2013-07-19 05:41:00,76.1,73.6,29.86,ESE,112,0.4,2.3,92,0.00,CLR,,0.00,WeatherDisplay:10.37,2013-07-19 09:41:00,
2013-07-19 05:46:00,75.9,73.4,29.86,SSE,158,0.3,1.7,92,0.00,CLR,,0.00,WeatherDisplay:10.37,2013-07-19 09:46:00,
2013-07-19 05:51:00,75.9,73.4,29.86,SSE,158,1.0,2.3,92,0.00,CLR,,0.00,WeatherDisplay:10.37,2013-07-19 09:51:00,
2013-07-19 05:56:00,75.7,73.2,29.86,West,270,0.0,0.0,92,0.00,CLR,,0.00,WeatherDisplay:10.37,2013-07-19 09:56:00,
2013-07-19 06:01:00,75.7,73.2,29.86,SSE,158,0.0,0.0,92,0.00,CLR,,0.00,WeatherDisplay:10.37,2013-07-19 10:01:00,
2013-07-19 06:06:00,75.7,73.2,29.86,SSW,202,1.8,3.7,92,0.00,CLR,,0.00,WeatherDisplay:10.37,2013-07-19 10:06:00,
2013-07-19 06:12:00,75.7,73.2,29.86,SE,135,0.0,2.3,92,0.00,CLR,,0.00,WeatherDisplay:10.37,2013-07-19 10:12:00,
2013-07-19 06:17:00,75.7,73.2,29.86,WSW,248,0.0,2.3,92,0.00,CLR,,0.00,WeatherDisplay:10.37,2013-07-19 10:17:00,
2013-07-19 06:22:00,75.7,73.2,29.86,WSW,248,0.5,1.2,92,0.00,CLR,,0.00,WeatherDisplay:10.37,2013-07-19 10:22:00,
2013-07-19 06:27:00,75.6,73.1,29.86,SW,225,0.0,0.0,92,0.00,CLR,,0.00,WeatherDisplay:10.37,2013-07-19 10:27:00,
2013-07-19 06:32:00,75.6,73.1,29.86,SW,225,0.0,0.0,92,0.00,CLR,,0.00,WeatherDisplay:10.37,2013-07-19 10:32:00,
2013-07-19 06:37:00,75.4,72.9,29.86,WNW,292,0.6,1.2,92,0.00,CLR,,0.00,WeatherDisplay:10.37,2013-07-19 10:37:00,
2013-07-19 06:42:00,75.4,72.9,29.86,South,180,0.0,0.0,92,0.00,CLR,,0.00,WeatherDisplay:10.37,2013-07-19 10:42:00,
2013-07-19 06:47:00,75.6,73.1,29.86,SSE,158,0.0,0.0,92,0.00,CLR,,0.00,WeatherDisplay:10.37,2013-07-19 10:47:00,
2013-07-19 06:52:00,75.6,73.1,29.86,South,180,0.2,1.1,92,0.00,CLR,,0.00,WeatherDisplay:10.37,2013-07-19 10:52:00,
2013-07-19 06:57:00,75.7,73.2,29.86,South,180,1.9,2.3,92,0.00,CLR,,0.00,WeatherDisplay:10.37,2013-07-19 10:57:00,
2013-07-19 07:03:00,75.7,73.2,29.86,SSW,202,1.3,2.3,92,0.00,CLR,,0.00,WeatherDisplay:10.37,2013-07-19 11:03:00,
2013-07-19 07:08:00,76.1,73.6,29.86,South,180,0.0,2.3,92,0.00,CLR,,0.00,WeatherDisplay:10.37,2013-07-19 11:08:00,
2013-07-19 07:13:00,76.5,74.0,29.85,SSW,202,1.4,2.7,92,0.00,CLR,,0.00,WeatherDisplay:10.37,2013-07-19 11:13:00,
2013-07-19 07:18:00,76.5,73.7,29.85,South,180,0.0,1.2,91,0.00,CLR,,0.00,WeatherDisplay:10.37,2013-07-19 11:18:00,
2013-07-19 07:23:00,76.8,74.0,29.85,SSE,158,0.1,3.5,91,0.00,CLR,,0.00,WeatherDisplay:10.37,2013-07-19 11:23:00,
2013-07-19 07:28:00,77.0,74.2,29.86,South,180,1.2,4.6,91,0.00,CLR,,0.00,WeatherDisplay:10.37,2013-07-19 11:28:00,
2013-07-19 07:33:00,77.2,74.0,29.86,South,180,1.6,3.5,90,0.00,CLR,,0.00,WeatherDisplay:10.37,2013-07-19 11:33:00,
2013-07-19 07:38:00,77.4,74.2,29.86,South,180,0.3,1.7,90,0.00,CLR,,0.00,WeatherDisplay:10.37,2013-07-19 11:38:00,
2013-07-19 07:43:00,77.5,74.3,29.86,SSE,158,0.3,2.2,90,0.00,CLR,,0.00,WeatherDisplay:10.37,2013-07-19 11:43:00,
2013-07-19 07:48:00,77.7,74.2,29.86,ENE,68,2.8,4.6,89,0.00,CLR,,0.00,WeatherDisplay:10.37,2013-07-19 11:48:00,
2013-07-19 07:54:00,78.1,74.6,29.86,ESE,112,2.5,3.5,89,0.00,CLR,,0.00,WeatherDisplay:10.37,2013-07-19 11:54:00,
2013-07-19 07:59:00,78.6,74.7,29.86,SE,135,1.1,2.3,88,0.00,CLR,,0.00,WeatherDisplay:10.37,2013-07-19 11:59:00,
2013-07-19 08:04:00,79.3,74.7,29.86,South,180,4.7,6.3,86,0.00,CLR,,0.00,WeatherDisplay:10.37,2013-07-19 12:04:00,
2013-07-19 08:09:00,80.1,75.5,29.86,SSE,158,1.7,4.6,86,0.00,CLR,,0.00,WeatherDisplay:10.37,2013-07-19 12:09:00,
2013-07-19 08:14:00,81.0,75.3,29.86,SW,225,2.6,3.7,83,0.00,CLR,,0.00,WeatherDisplay:10.37,2013-07-19 12:14:00,
2013-07-19 08:19:00,81.1,75.4,29.86,SSW,202,2.0,2.3,83,0.00,CLR,,0.00,WeatherDisplay:10.37,2013-07-19 12:19:00,
2013-07-19 08:24:00,81.9,75.5,29.86,SSW,202,3.2,5.8,81,0.00,CLR,,0.00,WeatherDisplay:10.37,2013-07-19 12:24:00,
2013-07-19 08:29:00,82.8,76.0,29.86,SW,225,1.5,3.7,80,0.00,CLR,,0.00,WeatherDisplay:10.37,2013-07-19 12:29:00,
2013-07-19 08:34:00,83.1,75.9,29.86,SW,225,4.0,5.3,79,0.00,CLR,,0.00,WeatherDisplay:10.37,2013-07-19 12:34:00,
2013-07-19 08:39:00,84.9,76.5,29.86,West,270,2.0,2.3,76,0.00,CLR,,0.00,WeatherDisplay:10.37,2013-07-19 12:39:00,
2013-07-19 08:45:00,84.6,76.6,29.86,SW,225,3.3,5.8,77,0.00,CLR,,0.00,WeatherDisplay:10.37,2013-07-19 12:45:00,
2013-07-19 08:50:00,85.6,76.8,29.86,South,180,2.2,3.2,75,0.00,CLR,,0.00,WeatherDisplay:10.37,2013-07-19 12:50:00,
2013-07-19 08:55:00,84.7,75.9,29.86,South,180,3.5,4.6,75,0.00,CLR,,0.00,WeatherDisplay:10.37,2013-07-19 12:55:00,
2013-07-19 09:00:00,84.5,76.1,29.86,SSW,209,5.0,7.0,76,0.00,CLR,,0.00,WeatherDisplay:10.37,2013-07-19 13:00:00,
2013-07-19 09:05:00,84.7,75.9,29.86,SSE,167,2.0,6.0,75,0.00,CLR,,0.00,WeatherDisplay:10.37,2013-07-19 13:05:00,
2013-07-19 09:10:00,85.0,75.8,29.86,South,175,2.0,7.0,74,0.00,CLR,,0.00,WeatherDisplay:10.37,2013-07-19 13:10:00,
2013-07-19 09:15:00,85.4,76.2,29.86,South,190,2.0,8.0,74,0.00,CLR,,0.00,WeatherDisplay:10.37,2013-07-19 13:15:00,
2013-07-19 09:20:00,85.6,75.9,29.86,SW,227,5.0,8.0,73,0.00,CLR,,0.00,WeatherDisplay:10.37,2013-07-19 13:20:00,
2013-07-19 09:25:00,86.2,75.7,29.86,South,180,5.0,6.3,71,0.00,CLR,,0.00,WeatherDisplay:10.37,2013-07-19 13:25:00,
2013-07-19 09:27:00,86.0,75.5,29.86,West,270,3.2,5.8,71,0.00,CLR,,0.00,WeatherDisplay:10.37,2013-07-19 13:27:00,
2013-07-19 09:31:00,85.5,75.9,29.86,West,270,4.5,5.8,73,0.00,CLR,,0.00,WeatherDisplay:10.37,2013-07-19 13:31:00,
2013-07-19 09:36:00,88.3,76.4,29.86,SSE,158,5.0,11.4,68,0.00,CLR,,0.00,WeatherDisplay:10.37,2013-07-19 13:36:00,
2013-07-19 09:41:00,87.1,75.7,29.86,West,270,4.1,6.8,69,0.00,CLR,,0.00,WeatherDisplay:10.37,2013-07-19 13:41:00,
2013-07-19 09:46:00,88.2,76.3,29.86,South,180,2.6,4.6,68,0.00,CLR,,0.00,WeatherDisplay:10.37,2013-07-19 13:46:00,
2013-07-19 09:51:00,89.4,76.1,29.85,WNW,292,4.0,5.8,65,0.00,CLR,,0.00,WeatherDisplay:10.37,2013-07-19 13:51:00,
2013-07-19 09:57:00,89.1,76.3,29.85,SW,225,5.8,7.3,66,0.00,CLR,,0.00,WeatherDisplay:10.37,2013-07-19 13:57:00,
2013-07-19 10:02:00,88.2,75.4,29.85,SW,225,4.8,5.8,66,0.00,CLR,,0.00,WeatherDisplay:10.37,2013-07-19 14:02:00,
2013-07-19 10:07:00,89.4,75.6,29.85,SW,225,3.3,9.2,64,0.00,CLR,,0.00,WeatherDisplay:10.37,2013-07-19 14:07:00,
2013-07-19 10:12:00,89.2,75.0,29.85,WSW,248,9.3,13.8,63,0.00,CLR,,0.00,WeatherDisplay:10.37,2013-07-19 14:12:00,
2013-07-19 10:17:00,89.6,75.8,29.85,West,270,4.2,11.5,64,0.00,CLR,,0.00,WeatherDisplay:10.37,2013-07-19 14:17:00,
2013-07-19 10:22:00,90.7,75.9,29.85,WSW,248,2.9,9.4,62,0.00,CLR,,0.00,WeatherDisplay:10.37,2013-07-19 14:22:00,
2013-07-19 10:27:00,87.4,75.1,29.85,SSW,202,3.5,6.9,67,0.00,CLR,,0.00,WeatherDisplay:10.37,2013-07-19 14:27:00,
2013-07-19 10:32:00,87.3,75.0,29.85,SSE,158,4.1,5.3,67,0.00,CLR,,0.00,WeatherDisplay:10.37,2013-07-19 14:32:00,
2013-07-19 10:37:00,86.7,74.0,29.84,SSW,202,6.2,8.3,66,0.00,CLR,,0.00,WeatherDisplay:10.37,2013-07-19 14:37:00,
2013-07-19 10:42:00,88.0,74.8,29.84,WNW,292,5.4,8.1,65,0.00,CLR,,0.00,WeatherDisplay:10.37,2013-07-19 14:42:00,
2013-07-19 10:48:00,88.7,74.5,29.84,South,180,3.2,4.6,63,0.00,CLR,,0.00,WeatherDisplay:10.37,2013-07-19 14:48:00,
2013-07-19 10:53:00,88.7,74.5,29.84,SSW,202,4.6,10.4,63,0.00,CLR,,0.00,WeatherDisplay:10.37,2013-07-19 14:53:00,
2013-07-19 10:58:00,87.8,74.6,29.84,West,270,3.4,5.8,65,0.00,CLR,,0.00,WeatherDisplay:10.37,2013-07-19 14:58:00,
2013-07-19 11:03:00,88.0,74.3,29.84,West,270,4.2,8.1,64,0.00,CLR,,0.00,WeatherDisplay:10.37,2013-07-19 15:03:00,
2013-07-19 11:08:00,90.0,74.7,29.84,SSE,158,5.8,6.9,61,0.00,CLR,,0.00,WeatherDisplay:10.37,2013-07-19 15:08:00,
2013-07-19 11:13:00,90.0,75.2,29.84,SW,225,4.0,5.3,62,0.00,CLR,,0.00,WeatherDisplay:10.37,2013-07-19 15:13:00,
2013-07-19 11:18:00,89.6,73.9,29.84,ENE,68,4.8,12.7,60,0.00,CLR,,0.00,WeatherDisplay:10.37,2013-07-19 15:18:00,
2013-07-19 11:23:00,89.6,73.9,29.84,NW,315,4.8,9.2,60,0.00,CLR,,0.00,WeatherDisplay:10.37,2013-07-19 15:23:00,
2013-07-19 11:28:00,90.1,73.8,29.84,NW,315,9.4,12.7,59,0.00,CLR,,0.00,WeatherDisplay:10.37,2013-07-19 15:28:00,
2013-07-19 11:33:00,89.8,73.6,29.84,WSW,248,7.0,8.1,59,0.00,CLR,,0.00,WeatherDisplay:10.37,2013-07-19 15:33:00,
2013-07-19 11:39:00,89.1,73.4,29.83,West,270,5.6,12.4,60,0.00,CLR,,0.00,WeatherDisplay:10.37,2013-07-19 15:39:00,
2013-07-19 11:44:00,89.8,74.1,29.83,South,180,8.6,10.9,60,0.00,CLR,,0.00,WeatherDisplay:10.37,2013-07-19 15:44:00,
2013-07-19 11:49:00,90.3,73.5,29.83,SSE,158,6.7,12.4,58,0.00,CLR,,0.00,WeatherDisplay:10.37,2013-07-19 15:49:00,
2013-07-19 11:54:00,90.9,73.6,29.83,West,270,3.2,5.8,57,0.00,CLR,,0.00,WeatherDisplay:10.37,2013-07-19 15:54:00,
2013-07-19 11:59:00,90.7,73.4,29.83,South,180,5.6,10.4,57,0.00,CLR,,0.00,WeatherDisplay:10.37,2013-07-19 15:59:00,
2013-07-19 12:04:00,90.7,73.9,29.82,WSW,248,6.8,9.4,58,0.00,CLR,,0.00,WeatherDisplay:10.37,2013-07-19 16:04:00,
2013-07-19 12:09:00,90.9,73.0,29.82,East,90,9.7,16.1,56,0.00,CLR,,0.00,WeatherDisplay:10.37,2013-07-19 16:09:00,
2013-07-19 12:14:00,91.9,73.4,29.82,West,270,7.4,10.4,55,0.00,CLR,,0.00,WeatherDisplay:10.37,2013-07-19 16:14:00,
2013-07-19 12:19:00,91.4,73.5,29.82,SW,225,4.6,6.9,56,0.00,CLR,,0.00,WeatherDisplay:10.37,2013-07-19 16:19:00,
2013-07-19 12:24:00,92.1,73.6,29.81,SE,135,5.5,16.0,55,0.00,CLR,,0.00,WeatherDisplay:10.37,2013-07-19 16:24:00,
2013-07-19 12:30:00,92.1,73.1,29.81,South,180,5.5,8.1,54,0.00,CLR,,0.00,WeatherDisplay:10.37,2013-07-19 16:30:00,
2013-07-19 12:35:00,92.1,73.6,29.81,ESE,112,5.4,8.1,55,0.00,CLR,,0.00,WeatherDisplay:10.37,2013-07-19 16:35:00,
2013-07-19 12:40:00,91.9,72.3,29.81,SE,135,7.7,7.7,53,0.00,CLR,,0.00,WeatherDisplay:10.37,2013-07-19 16:40:00,
2013-07-19 12:45:00,92.2,72.6,29.81,West,264,5.0,12.0,53,0.00,CLR,,0.00,WeatherDisplay:10.37,2013-07-19 16:45:00,
2013-07-19 12:50:00,92.6,73.5,29.80,SW,233,8.0,13.0,54,0.00,CLR,,0.00,WeatherDisplay:10.37,2013-07-19 16:50:00,
2013-07-19 12:55:00,92.2,73.1,29.80,SSW,205,7.0,15.0,54,0.00,CLR,,0.00,WeatherDisplay:10.37,2013-07-19 16:55:00,
2013-07-19 13:00:00,92.5,72.9,29.80,SSW,209,6.0,8.0,53,0.00,CLR,,0.00,WeatherDisplay:10.37,2013-07-19 17:00:00,
2013-07-19 13:05:00,93.6,74.5,29.80,SW,235,3.0,9.0,54,0.00,CLR,,0.00,WeatherDisplay:10.37,2013-07-19 17:05:00,
2013-07-19 13:10:00,93.5,73.2,29.80,SW,219,6.0,14.0,52,0.00,CLR,,0.00,WeatherDisplay:10.37,2013-07-19 17:10:00,
2013-07-19 13:15:00,93.3,73.0,29.79,SSW,209,7.0,14.0,52,0.00,CLR,,0.00,WeatherDisplay:10.37,2013-07-19 17:15:00,
2013-07-19 13:20:00,93.5,73.2,29.79,SW,219,9.0,14.0,52,0.00,CLR,,0.00,WeatherDisplay:10.37,2013-07-19 17:20:00,
2013-07-19 13:25:00,92.8,73.2,29.79,SSE,158,4.3,5.8,53,0.00,CLR,,0.00,WeatherDisplay:10.37,2013-07-19 17:25:00,
2013-07-19 13:30:00,93.4,72.6,29.79,West,270,11.0,17.3,51,0.00,CLR,,0.00,WeatherDisplay:10.37,2013-07-19 17:30:00,
2013-07-19 13:35:00,92.8,73.2,29.79,ESE,112,4.7,5.8,53,0.00,CLR,,0.00,WeatherDisplay:10.37,2013-07-19 17:35:00,
2013-07-19 13:40:00,93.0,72.8,29.79,South,180,4.8,10.4,52,0.00,CLR,,0.00,WeatherDisplay:10.37,2013-07-19 17:40:00,
2013-07-19 13:45:00,92.8,72.6,29.79,East,90,6.3,10.4,52,0.00,CLR,,0.00,WeatherDisplay:10.37,2013-07-19 17:45:00,
2013-07-19 13:51:00,93.0,72.2,29.78,West,270,4.1,9.2,51,0.00,CLR,,0.00,WeatherDisplay:10.37,2013-07-19 17:51:00,
2013-07-19 13:56:00,93.7,73.4,29.78,NW,315,4.1,6.3,52,0.00,CLR,,0.00,WeatherDisplay:10.37,2013-07-19 17:56:00,
2013-07-19 14:01:00,93.2,73.0,29.78,SSW,202,7.4,11.4,52,0.00,CLR,,0.00,WeatherDisplay:10.37,2013-07-19 18:01:00,
2013-07-19 14:06:00,93.2,71.8,29.78,ESE,112,8.0,12.4,50,0.00,CLR,,0.00,WeatherDisplay:10.37,2013-07-19 18:06:00,
2013-07-19 14:11:00,93.4,71.4,29.78,West,270,7.8,14.5,49,0.00,CLR,,0.00,WeatherDisplay:10.37,2013-07-19 18:11:00,
2013-07-19 14:16:00,93.4,72.0,29.77,SE,135,7.4,9.2,50,0.00,CLR,,0.00,WeatherDisplay:10.37,2013-07-19 18:16:00,
2013-07-19 14:21:00,93.7,71.7,29.77,South,180,9.5,13.8,49,0.00,CLR,,0.00,WeatherDisplay:10.37,2013-07-19 18:21:00,
2013-07-19 14:26:00,93.0,71.6,29.77,SW,225,7.6,12.4,50,0.00,CLR,,0.00,WeatherDisplay:10.37,2013-07-19 18:26:00,
2013-07-19 14:31:00,93.0,70.4,29.77,SSW,202,5.4,6.9,48,0.00,CLR,,0.00,WeatherDisplay:10.37,2013-07-19 18:31:00,
2013-07-19 14:36:00,93.9,71.8,29.76,NNW,338,7.5,9.2,49,0.00,CLR,,0.00,WeatherDisplay:10.37,2013-07-19 18:36:00,
2013-07-19 14:42:00,93.4,71.4,29.76,West,270,9.9,10.4,49,0.00,CLR,,0.00,WeatherDisplay:10.37,2013-07-19 18:42:00,
2013-07-19 14:47:00,94.3,73.4,29.76,West,270,5.1,6.9,51,0.00,CLR,,0.00,WeatherDisplay:10.37,2013-07-19 18:47:00,
2013-07-19 14:52:00,93.7,71.0,29.75,West,270,6.6,7.3,48,0.00,CLR,,0.00,WeatherDisplay:10.37,2013-07-19 18:52:00,
2013-07-19 14:57:00,94.1,71.4,29.75,SSW,202,5.9,6.8,48,0.00,CLR,,0.00,WeatherDisplay:10.37,2013-07-19 18:57:00,
2013-07-19 15:02:00,92.3,72.1,29.75,SE,135,9.0,13.0,52,0.00,CLR,,0.00,WeatherDisplay:10.37,2013-07-19 19:02:00,
2013-07-19 15:07:00,91.8,71.1,29.75,South,180,7.3,10.4,51,0.00,CLR,,0.00,WeatherDisplay:10.37,2013-07-19 19:07:00,
2013-07-19 15:12:00,91.4,71.3,29.75,NNE,22,8.4,11.5,52,0.00,CLR,,0.00,WeatherDisplay:10.37,2013-07-19 19:12:00,
2013-07-19 15:17:00,90.9,71.4,29.75,SW,225,4.5,9.2,53,0.00,CLR,,0.00,WeatherDisplay:10.37,2013-07-19 19:17:00,
2013-07-19 15:22:00,92.8,72.6,29.75,SE,135,7.8,10.4,52,0.00,CLR,,0.00,WeatherDisplay:10.37,2013-07-19 19:22:00,
2013-07-19 15:27:00,91.9,71.8,29.75,SSW,202,8.1,11.5,52,0.00,CLR,,0.00,WeatherDisplay:10.37,2013-07-19 19:27:00,
2013-07-19 15:33:00,92.1,71.9,29.75,SSW,202,4.8,5.8,52,0.00,CLR,,0.00,WeatherDisplay:10.37,2013-07-19 19:33:00,
2013-07-19 15:38:00,92.3,72.1,29.74,SSW,202,5.3,10.9,52,0.00,CLR,,0.00,WeatherDisplay:10.37,2013-07-19 19:38:00,
2013-07-19 15:43:00,91.6,72.0,29.74,WSW,248,2.7,5.8,53,0.00,CLR,,0.00,WeatherDisplay:10.37,2013-07-19 19:43:00,
2013-07-19 15:48:00,91.6,71.5,29.74,West,270,9.7,13.8,52,0.00,CLR,,0.00,WeatherDisplay:10.37,2013-07-19 19:48:00,
2013-07-19 15:53:00,91.0,70.9,29.75,West,270,4.4,15.0,52,0.00,CLR,,0.00,WeatherDisplay:10.37,2013-07-19 19:53:00,
2013-07-19 15:58:00,91.8,71.7,29.75,NNW,338,5.0,12.7,52,0.00,CLR,,0.00,WeatherDisplay:10.37,2013-07-19 19:58:00,
2013-07-19 16:03:00,91.8,71.1,29.75,SE,135,10.3,15.0,51,0.00,CLR,,0.00,WeatherDisplay:10.37,2013-07-19 20:03:00,
2013-07-19 16:09:00,91.0,70.9,29.75,West,270,9.6,13.8,52,0.00,CLR,,0.00,WeatherDisplay:10.37,2013-07-19 20:09:00,
2013-07-19 16:14:00,90.3,71.4,29.75,SSW,202,4.3,6.9,54,0.00,CLR,,0.00,WeatherDisplay:10.37,2013-07-19 20:14:00,
2013-07-19 16:19:00,88.7,71.5,29.75,SW,225,4.5,6.3,57,0.00,CLR,,0.00,WeatherDisplay:10.37,2013-07-19 20:19:00,
2013-07-19 16:24:00,87.6,72.0,29.75,SW,225,3.4,5.8,60,0.00,CLR,,0.00,WeatherDisplay:10.37,2013-07-19 20:24:00,
2013-07-19 16:29:00,84.2,72.9,29.77,West,270,9.0,11.5,69,0.01,RA,,0.01,WeatherDisplay:10.37,2013-07-19 20:29:00,
2013-07-19 16:34:00,81.9,72.8,29.77,North,360,1.4,4.6,74,0.03,RA,,0.03,WeatherDisplay:10.37,2013-07-19 20:34:00,
2013-07-19 16:39:00,80.4,73.3,29.76,NNW,338,3.9,4.6,79,0.04,RA,,0.04,WeatherDisplay:10.37,2013-07-19 20:39:00,
2013-07-19 16:44:00,80.2,74.2,29.76,NNE,22,1.1,2.3,82,0.04,RA,,0.04,WeatherDisplay:10.37,2013-07-19 20:44:00,
2013-07-19 16:49:00,80.6,76.4,29.75,ESE,112,0.0,0.0,87,0.04,CLR,,0.04,WeatherDisplay:10.37,2013-07-19 20:49:00,
2013-07-19 16:54:00,83.3,75.3,29.75,South,180,1.3,2.7,77,0.04,CLR,,0.04,WeatherDisplay:10.37,2013-07-19 20:54:00,
2013-07-19 17:00:00,85.3,75.7,29.75,North,360,2.3,3.5,73,0.04,CLR,,0.04,WeatherDisplay:10.37,2013-07-19 21:00:00,
2013-07-19 17:05:00,88.5,77.0,29.75,ESE,112,1.6,4.6,69,0.04,CLR,,0.04,WeatherDisplay:10.37,2013-07-19 21:05:00,
2013-07-19 17:10:00,89.4,76.1,29.75,WSW,248,3.5,5.3,65,0.04,CLR,,0.04,WeatherDisplay:10.37,2013-07-19 21:10:00,
2013-07-19 17:15:00,89.2,73.5,29.75,SSW,198,5.0,8.0,60,0.00,CLR,,0.04,WeatherDisplay:10.37,2013-07-19 21:15:00,
2013-07-19 17:20:00,89.9,72.7,29.75,SW,222,8.0,11.0,57,0.00,CLR,,0.04,WeatherDisplay:10.37,2013-07-19 21:20:00,
2013-07-19 17:25:00,90.1,73.3,29.74,WSW,248,4.7,4.7,58,0.04,CLR,,0.04,WeatherDisplay:10.37,2013-07-19 21:25:00,
2013-07-19 17:30:00,90.1,73.3,29.74,WSW,248,4.7,4.7,58,0.03,CLR,,0.04,WeatherDisplay:10.37,2013-07-19 21:30:00,
2013-07-19 17:35:00,90.1,73.3,29.74,WSW,248,4.7,4.7,58,0.00,CLR,,0.04,WeatherDisplay:10.37,2013-07-19 21:35:00,
2013-07-19 17:40:00,91.2,72.8,29.74,West,270,2.7,4.6,55,0.00,CLR,,0.04,WeatherDisplay:10.37,2013-07-19 21:40:00,
2013-07-19 17:42:00,92.3,72.1,29.74,West,270,12.4,16.1,52,0.00,CLR,,0.04,WeatherDisplay:10.37,2013-07-19 21:42:00,
2013-07-19 17:48:00,91.6,72.6,29.74,East,90,5.0,8.1,54,0.00,CLR,,0.04,WeatherDisplay:10.37,2013-07-19 21:48:00,
2013-07-19 17:53:00,91.2,72.2,29.74,West,270,5.1,8.1,54,0.00,CLR,,0.04,WeatherDisplay:10.37,2013-07-19 21:53:00,
2013-07-19 17:58:00,91.8,71.7,29.74,SSE,158,4.1,5.3,52,0.00,CLR,,0.04,WeatherDisplay:10.37,2013-07-19 21:58:00,
2013-07-19 18:03:00,91.2,72.2,29.74,West,270,5.7,8.1,54,0.00,CLR,,0.04,WeatherDisplay:10.37,2013-07-19 22:03:00,
2013-07-19 18:08:00,90.9,72.0,29.74,SW,225,5.1,8.1,54,0.00,CLR,,0.04,WeatherDisplay:10.37,2013-07-19 22:08:00,
2013-07-19 18:13:00,90.5,71.6,29.73,East,90,2.1,6.3,54,0.00,CLR,,0.04,WeatherDisplay:10.37,2013-07-19 22:13:00,
2013-07-19 18:18:00,90.9,72.0,29.73,West,270,6.4,12.4,54,0.00,CLR,,0.04,WeatherDisplay:10.37,2013-07-19 22:18:00,
2013-07-19 18:23:00,90.7,72.3,29.73,West,270,6.1,8.1,55,0.00,CLR,,0.04,WeatherDisplay:10.37,2013-07-19 22:23:00,
2013-07-19 18:28:00,91.8,72.2,29.73,WSW,248,5.9,8.3,53,0.00,CLR,,0.04,WeatherDisplay:10.37,2013-07-19 22:28:00,
2013-07-19 18:33:00,92.7,73.1,29.73,SW,225,7.5,10.4,53,0.00,CLR,,0.04,WeatherDisplay:10.37,2013-07-19 22:33:00,
2013-07-19 18:39:00,91.6,72.6,29.72,West,270,5.6,9.2,54,0.00,CLR,,0.04,WeatherDisplay:10.37,2013-07-19 22:39:00,
2013-07-19 18:44:00,91.2,72.2,29.72,SSW,202,5.6,6.9,54,0.00,CLR,,0.04,WeatherDisplay:10.37,2013-07-19 22:44:00,
2013-07-19 18:49:00,91.2,72.2,29.72,SE,135,3.1,6.9,54,0.00,CLR,,0.04,WeatherDisplay:10.37,2013-07-19 22:49:00,
2013-07-19 18:54:00,90.0,72.2,29.72,NW,315,3.7,5.8,56,0.00,CLR,,0.04,WeatherDisplay:10.37,2013-07-19 22:54:00,
2013-07-19 18:59:00,90.0,71.7,29.72,WNW,292,2.6,6.9,55,0.00,CLR,,0.04,WeatherDisplay:10.37,2013-07-19 22:59:00,
2013-07-19 19:04:00,90.0,72.2,29.72,NE,45,4.8,5.8,56,0.00,CLR,,0.04,WeatherDisplay:10.37,2013-07-19 23:04:00,
2013-07-19 19:09:00,90.0,72.2,29.72,SSW,202,5.8,6.9,56,0.00,CLR,,0.04,WeatherDisplay:10.37,2013-07-19 23:09:00,
2013-07-19 19:14:00,89.6,71.3,29.72,NNW,338,6.9,9.2,55,0.00,CLR,,0.04,WeatherDisplay:10.37,2013-07-19 23:14:00,
2013-07-19 19:19:00,90.5,72.1,29.72,West,270,5.4,6.9,55,0.00,CLR,,0.04,WeatherDisplay:10.37,2013-07-19 23:19:00,
2013-07-19 19:25:00,91.4,71.9,29.72,NNW,338,5.4,8.1,53,0.00,CLR,,0.04,WeatherDisplay:10.37,2013-07-19 23:25:00,
2013-07-19 19:30:00,90.9,72.5,29.72,SW,225,3.1,6.3,55,0.00,CLR,,0.04,WeatherDisplay:10.37,2013-07-19 23:30:00,
2013-07-19 19:35:00,89.8,72.0,29.72,NE,45,2.5,6.9,56,0.00,CLR,,0.04,WeatherDisplay:10.37,2013-07-19 23:35:00,
2013-07-19 19:40:00,89.1,71.9,29.73,ESE,112,0.9,3.5,57,0.00,CLR,,0.04,WeatherDisplay:10.37,2013-07-19 23:40:00,
2013-07-19 19:45:00,89.1,71.9,29.73,ESE,112,5.1,8.8,57,0.00,CLR,,0.04,WeatherDisplay:10.37,2013-07-19 23:45:00,
2013-07-19 19:50:00,88.6,71.4,29.73,South,187,2.0,6.0,57,0.00,CLR,,0.04,WeatherDisplay:10.37,2013-07-19 23:50:00,
2013-07-19 19:55:00,88.3,72.1,29.73,SSW,198,3.0,6.0,59,0.00,CLR,,0.04,WeatherDisplay:10.37,2013-07-19 23:55:00,
2013-07-19 20:00:00,89.2,71.4,29.73,SW,235,3.0,7.0,56,0.00,CLR,,0.04,WeatherDisplay:10.37,2013-07-20 00:00:00,
2013-07-19 20:05:00,88.6,71.4,29.73,SW,217,3.0,7.0,57,0.00,CLR,,0.04,WeatherDisplay:10.37,2013-07-20 00:05:00,
2013-07-19 20:10:00,87.9,71.3,29.73,SW,227,3.0,9.0,58,0.00,CLR,,0.04,WeatherDisplay:10.37,2013-07-20 00:10:00,
2013-07-19 20:15:00,87.4,71.3,29.74,North,360,2.2,4.6,59,0.00,CLR,,0.04,WeatherDisplay:10.37,2013-07-20 00:15:00,
2013-07-19 20:20:00,87.3,71.8,29.74,WNW,296,3.0,9.0,60,0.00,CLR,,0.04,WeatherDisplay:10.37,2013-07-20 00:20:00,
2013-07-19 20:25:00,86.5,71.5,29.74,West,266,2.0,7.0,61,0.00,CLR,,0.04,WeatherDisplay:10.37,2013-07-20 00:25:00,
2013-07-19 20:30:00,86.4,71.4,29.74,SW,225,3.5,8.1,61,0.00,CLR,,0.04,WeatherDisplay:10.37,2013-07-20 00:30:00,
2013-07-19 20:35:00,86.2,71.2,29.74,SW,225,5.7,9.2,61,0.00,CLR,,0.04,WeatherDisplay:10.37,2013-07-20 00:35:00,
2013-07-19 20:40:00,86.2,71.6,29.73,South,180,3.3,6.9,62,0.00,CLR,,0.04,WeatherDisplay:10.37,2013-07-20 00:40:00,
2013-07-19 20:45:00,86.0,71.5,29.73,NNE,22,3.2,4.2,62,0.00,CLR,,0.04,WeatherDisplay:10.37,2013-07-20 00:45:00,
2013-07-19 20:51:00,85.8,71.7,29.73,NNW,338,3.0,4.2,63,0.00,CLR,,0.04,WeatherDisplay:10.37,2013-07-20 00:51:00,
2013-07-19 20:56:00,85.3,71.7,29.73,SE,135,1.4,2.3,64,0.00,CLR,,0.04,WeatherDisplay:10.37,2013-07-20 00:56:00,
2013-07-19 21:01:00,84.9,71.8,29.73,WNW,292,0.9,2.3,65,0.00,CLR,,0.04,WeatherDisplay:10.37,2013-07-20 01:01:00,
2013-07-19 21:06:00,84.7,72.1,29.73,West,270,0.0,4.6,66,0.00,CLR,,0.04,WeatherDisplay:10.37,2013-07-20 01:06:00,
2013-07-19 21:11:00,84.4,72.2,29.73,SW,225,1.3,2.3,67,0.00,CLR,,0.04,WeatherDisplay:10.37,2013-07-20 01:11:00,
2013-07-19 21:16:00,84.2,72.0,29.73,West,270,0.2,1.2,67,0.00,CLR,,0.04,WeatherDisplay:10.37,2013-07-20 01:16:00,
2013-07-19 21:21:00,83.8,72.5,29.73,South,180,0.7,2.3,69,0.00,CLR,,0.04,WeatherDisplay:10.37,2013-07-20 01:21:00,
2013-07-19 21:26:00,83.1,72.7,29.73,SSE,158,0.0,0.0,71,0.00,CLR,,0.04,WeatherDisplay:10.37,2013-07-20 01:26:00,
2013-07-19 21:31:00,82.6,73.1,29.73,South,180,0.0,0.0,73,0.00,CLR,,0.04,WeatherDisplay:10.37,2013-07-20 01:31:00,
2013-07-19 21:36:00,81.7,73.0,29.73,South,180,1.0,2.3,75,0.00,CLR,,0.04,WeatherDisplay:10.37,2013-07-20 01:36:00,
2013-07-19 21:42:00,81.5,73.2,29.73,South,180,0.7,2.7,76,0.00,CLR,,0.04,WeatherDisplay:10.37,2013-07-20 01:42:00,
2013-07-19 21:47:00,80.6,73.5,29.73,South,180,5.5,8.1,79,0.00,CLR,,0.04,WeatherDisplay:10.37,2013-07-20 01:47:00,
2013-07-19 21:52:00,79.7,72.6,29.72,West,270,0.0,2.3,79,0.00,CLR,,0.04,WeatherDisplay:10.37,2013-07-20 01:52:00,
2013-07-19 21:57:00,79.3,72.2,29.72,SSW,202,1.6,2.3,79,0.00,CLR,,0.04,WeatherDisplay:10.37,2013-07-20 01:57:00,
2013-07-19 22:02:00,79.2,72.1,29.72,ESE,112,0.0,0.0,79,0.00,CLR,,0.04,WeatherDisplay:10.37,2013-07-20 02:02:00,
2013-07-19 22:07:00,79.2,72.5,29.72,ESE,112,2.2,2.3,80,0.00,CLR,,0.04,WeatherDisplay:10.37,2013-07-20 02:07:00,
2013-07-19 22:12:00,79.2,72.5,29.72,ESE,112,2.2,2.3,80,0.00,CLR,,0.04,WeatherDisplay:10.37,2013-07-20 02:12:00,
2013-07-19 22:17:00,79.2,72.5,29.73,ESE,112,2.2,2.3,80,0.00,CLR,,0.04,WeatherDisplay:10.37,2013-07-20 02:17:00,
2013-07-19 22:22:00,79.2,72.5,29.73,ESE,112,2.2,2.3,80,0.00,CLR,,0.04,WeatherDisplay:10.37,2013-07-20 02:22:00,
2013-07-19 22:28:00,79.2,72.5,29.74,ESE,112,2.2,2.3,80,0.00,CLR,,0.04,WeatherDisplay:10.37,2013-07-20 02:28:00,
2013-07-19 22:33:00,79.2,72.5,29.74,ESE,112,2.2,2.3,80,0.00,CLR,,0.04,WeatherDisplay:10.37,2013-07-20 02:33:00,
2013-07-19 22:38:00,79.2,72.5,29.74,ESE,112,2.2,2.3,80,0.00,CLR,,0.04,WeatherDisplay:10.37,2013-07-20 02:38:00,
2013-07-19 22:43:00,79.2,72.5,29.74,ESE,112,2.2,2.3,80,0.00,CLR,,0.04,WeatherDisplay:10.37,2013-07-20 02:43:00,
2013-07-19 22:48:00,79.2,72.5,29.74,ESE,112,2.2,2.3,80,0.00,CLR,,0.04,WeatherDisplay:10.37,2013-07-20 02:48:00,
2013-07-19 22:53:00,79.2,72.5,29.74,ESE,112,2.2,2.3,80,0.00,CLR,,0.04,WeatherDisplay:10.37,2013-07-20 02:53:00,
2013-07-19 22:58:00,76.5,71.3,29.74,SSW,202,0.3,2.3,84,0.00,CLR,,0.04,WeatherDisplay:10.37,2013-07-20 02:58:00,
2013-07-19 23:03:00,76.3,71.1,29.74,WSW,248,0.3,3.5,84,0.00,CLR,,0.04,WeatherDisplay:10.37,2013-07-20 03:03:00,
2013-07-19 23:08:00,76.1,70.9,29.74,South,180,1.2,1.7,84,0.00,CLR,,0.04,WeatherDisplay:10.37,2013-07-20 03:08:00,
2013-07-19 23:13:00,75.9,70.7,29.75,SE,135,2.8,5.8,84,0.00,CLR,,0.04,WeatherDisplay:10.37,2013-07-20 03:13:00,
2013-07-19 23:18:00,75.9,70.7,29.75,NW,315,0.8,2.3,84,0.00,CLR,,0.04,WeatherDisplay:10.37,2013-07-20 03:18:00,
2013-07-19 23:24:00,75.9,70.7,29.74,ESE,112,2.0,2.7,84,0.00,CLR,,0.04,WeatherDisplay:10.37,2013-07-20 03:24:00,
2013-07-19 23:29:00,75.7,70.5,29.74,South,180,0.0,0.0,84,0.00,CLR,,0.04,WeatherDisplay:10.37,2013-07-20 03:29:00,
2013-07-19 23:34:00,75.7,70.9,29.74,South,180,3.0,3.5,85,0.00,CLR,,0.04,WeatherDisplay:10.37,2013-07-20 03:34:00,
2013-07-19 23:39:00,75.6,70.8,29.75,SE,135,2.2,4.6,85,0.00,CLR,,0.04,WeatherDisplay:10.37,2013-07-20 03:39:00,
2013-07-19 23:44:00,75.6,70.8,29.75,West,270,2.4,4.6,85,0.00,CLR,,0.04,WeatherDisplay:10.37,2013-07-20 03:44:00,
2013-07-19 23:49:00,75.4,70.6,29.75,SW,225,2.6,3.5,85,0.00,CLR,,0.04,WeatherDisplay:10.37,2013-07-20 03:49:00,
2013-07-19 23:54:00,75.4,70.6,29.75,West,270,0.4,1.2,85,0.00,CLR,,0.04,WeatherDisplay:10.37,2013-07-20 03:54:00,
2013-07-19 23:59:00,75.4,70.6,29.75,SW,225,1.3,1.7,85,0.00,CLR,,0.04,WeatherDisplay:10.37,2013-07-20 03:59:00,